sensor_id;sensor_type;location;lat;lon;timestamp;P1;durP1;ratioP1;P2;durP2;ratioP2
10667;SDS011;5382;42.136;24.796;2024-03-23T00:55:46;10.50;;;5.07;;
10667;SDS011;5382;42.136;24.796;2024-03-23T00:58:12;7.47;;;5.20;;
10667;SDS011;5382;42.136;24.796;2024-03-23T01:00:39;8.38;;;5.53;;
10667;SDS011;5382;42.136;24.796;2024-03-23T01:03:05;7.07;;;5.55;;
10667;SDS011;5382;42.136;24.796;2024-03-23T01:05:32;11.75;;;8.98;;
10667;SDS011;5382;42.136;24.796;2024-03-23T01:07:57;11.35;;;8.98;;
10667;SDS011;5382;42.136;24.796;2024-03-23T01:10:24;10.65;;;6.72;;
10667;SDS011;5382;42.136;24.796;2024-03-23T01:12:52;9.20;;;6.88;;
10667;SDS011;5382;42.136;24.796;2024-03-23T01:15:19;14.50;;;7.65;;
10667;SDS011;5382;42.136;24.796;2024-03-23T01:17:45;11.35;;;7.10;;
10667;SDS011;5382;42.136;24.796;2024-03-23T01:20:11;13.07;;;7.22;;
10667;SDS011;5382;42.136;24.796;2024-03-23T01:22:38;17.42;;;11.45;;
10667;SDS011;5382;42.136;24.796;2024-03-23T01:25:05;13.60;;;7.45;;
10667;SDS011;5382;42.136;24.796;2024-03-23T01:27:32;13.25;;;9.60;;
10667;SDS011;5382;42.136;24.796;2024-03-23T01:30:01;10.02;;;6.68;;
10667;SDS011;5382;42.136;24.796;2024-03-23T01:32:27;11.70;;;8.65;;
10667;SDS011;5382;42.136;24.796;2024-03-23T01:34:54;13.50;;;9.48;;
10667;SDS011;5382;42.136;24.796;2024-03-23T01:37:20;12.13;;;6.18;;
10667;SDS011;5382;42.136;24.796;2024-03-23T01:39:47;10.15;;;6.43;;
10667;SDS011;5382;42.136;24.796;2024-03-23T01:42:13;11.50;;;6.07;;
10667;SDS011;5382;42.136;24.796;2024-03-23T01:44:40;10.25;;;6.47;;
10667;SDS011;5382;42.136;24.796;2024-03-23T01:47:07;13.15;;;5.95;;
10667;SDS011;5382;42.136;24.796;2024-03-23T01:49:34;12.65;;;7.05;;
10667;SDS011;5382;42.136;24.796;2024-03-23T01:52:01;9.95;;;6.68;;
10667;SDS011;5382;42.136;24.796;2024-03-23T01:54:28;10.75;;;5.68;;
10667;SDS011;5382;42.136;24.796;2024-03-23T01:56:55;8.57;;;5.85;;
10667;SDS011;5382;42.136;24.796;2024-03-23T01:59:22;8.75;;;6.63;;
10667;SDS011;5382;42.136;24.796;2024-03-23T02:01:49;9.85;;;6.18;;
10667;SDS011;5382;42.136;24.796;2024-03-23T02:04:17;10.75;;;5.40;;
10667;SDS011;5382;42.136;24.796;2024-03-23T02:06:43;9.32;;;5.97;;
10667;SDS011;5382;42.136;24.796;2024-03-23T02:09:10;9.98;;;6.45;;
10667;SDS011;5382;42.136;24.796;2024-03-23T02:11:36;9.52;;;5.78;;
10667;SDS011;5382;42.136;24.796;2024-03-23T02:14:03;8.02;;;5.20;;
10667;SDS011;5382;42.136;24.796;2024-03-23T02:16:29;8.30;;;5.70;;
10667;SDS011;5382;42.136;24.796;2024-03-23T02:18:56;13.20;;;6.10;;
10667;SDS011;5382;42.136;24.796;2024-03-23T02:21:23;9.25;;;5.65;;
10667;SDS011;5382;42.136;24.796;2024-03-23T02:23:54;7.25;;;5.43;;
10667;SDS011;5382;42.136;24.796;2024-03-23T02:26:20;9.50;;;5.53;;
10667;SDS011;5382;42.136;24.796;2024-03-23T02:28:47;8.65;;;6.20;;
10667;SDS011;5382;42.136;24.796;2024-03-23T02:31:12;8.57;;;6.03;;
10667;SDS011;5382;42.136;24.796;2024-03-23T02:33:40;12.15;;;6.00;;
10667;SDS011;5382;42.136;24.796;2024-03-23T02:36:06;9.75;;;6.32;;
10667;SDS011;5382;42.136;24.796;2024-03-23T02:38:33;11.30;;;6.30;;
10667;SDS011;5382;42.136;24.796;2024-03-23T02:41:04;9.15;;;5.95;;
10667;SDS011;5382;42.136;24.796;2024-03-23T02:43:31;8.77;;;5.90;;
10667;SDS011;5382;42.136;24.796;2024-03-23T02:45:57;11.88;;;5.78;;
10667;SDS011;5382;42.136;24.796;2024-03-23T02:48:24;10.50;;;6.43;;
10667;SDS011;5382;42.136;24.796;2024-03-23T02:50:50;12.55;;;6.30;;
10667;SDS011;5382;42.136;24.796;2024-03-23T02:53:17;12.05;;;6.10;;
10667;SDS011;5382;42.136;24.796;2024-03-23T02:55:43;9.63;;;5.47;;
10667;SDS011;5382;42.136;24.796;2024-03-23T02:58:11;12.23;;;5.35;;
10667;SDS011;5382;42.136;24.796;2024-03-23T03:00:37;10.75;;;5.72;;
10667;SDS011;5382;42.136;24.796;2024-03-23T03:03:04;9.30;;;5.53;;
10667;SDS011;5382;42.136;24.796;2024-03-23T03:05:30;8.95;;;5.82;;
10667;SDS011;5382;42.136;24.796;2024-03-23T03:07:57;9.40;;;6.03;;
10667;SDS011;5382;42.136;24.796;2024-03-23T03:10:23;10.85;;;5.65;;
10667;SDS011;5382;42.136;24.796;2024-03-23T03:12:50;9.27;;;5.10;;
10667;SDS011;5382;42.136;24.796;2024-03-23T03:15:17;11.93;;;7.03;;
10667;SDS011;5382;42.136;24.796;2024-03-23T03:17:44;11.60;;;6.45;;
10667;SDS011;5382;42.136;24.796;2024-03-23T03:20:10;9.77;;;5.43;;
10667;SDS011;5382;42.136;24.796;2024-03-23T03:22:39;7.35;;;5.22;;
10667;SDS011;5382;42.136;24.796;2024-03-23T03:25:05;11.23;;;6.30;;
10667;SDS011;5382;42.136;24.796;2024-03-23T03:27:33;7.85;;;5.80;;
10667;SDS011;5382;42.136;24.796;2024-03-23T03:29:59;8.73;;;5.57;;
10667;SDS011;5382;42.136;24.796;2024-03-23T03:32:29;14.00;;;6.22;;
10667;SDS011;5382;42.136;24.796;2024-03-23T03:34:55;10.45;;;5.78;;
10667;SDS011;5382;42.136;24.796;2024-03-23T03:37:23;9.38;;;5.30;;
10667;SDS011;5382;42.136;24.796;2024-03-23T03:39:49;10.52;;;5.68;;
10667;SDS011;5382;42.136;24.796;2024-03-23T03:42:16;7.32;;;5.28;;
10667;SDS011;5382;42.136;24.796;2024-03-23T03:44:42;7.97;;;6.10;;
10667;SDS011;5382;42.136;24.796;2024-03-23T03:47:09;14.07;;;6.40;;
10667;SDS011;5382;42.136;24.796;2024-03-23T03:49:36;9.35;;;5.75;;
10667;SDS011;5382;42.136;24.796;2024-03-23T03:52:04;10.25;;;5.82;;
10667;SDS011;5382;42.136;24.796;2024-03-23T03:54:30;13.45;;;6.53;;
10667;SDS011;5382;42.136;24.796;2024-03-23T03:56:57;8.98;;;5.95;;
10667;SDS011;5382;42.136;24.796;2024-03-23T03:59:23;11.38;;;5.88;;
10667;SDS011;5382;42.136;24.796;2024-03-23T04:01:50;10.70;;;6.10;;
10667;SDS011;5382;42.136;24.796;2024-03-23T04:04:15;14.63;;;6.53;;
10667;SDS011;5382;42.136;24.796;2024-03-23T04:06:44;16.92;;;6.55;;
10667;SDS011;5382;42.136;24.796;2024-03-23T04:09:10;11.25;;;6.38;;
10667;SDS011;5382;42.136;24.796;2024-03-23T04:11:37;11.68;;;6.28;;
10667;SDS011;5382;42.136;24.796;2024-03-23T04:14:03;9.40;;;5.70;;
10667;SDS011;5382;42.136;24.796;2024-03-23T04:16:33;11.88;;;6.45;;
10667;SDS011;5382;42.136;24.796;2024-03-23T04:19:00;14.52;;;6.80;;
10667;SDS011;5382;42.136;24.796;2024-03-23T04:21:27;9.85;;;6.30;;
10667;SDS011;5382;42.136;24.796;2024-03-23T04:23:55;11.90;;;5.93;;
10667;SDS011;5382;42.136;24.796;2024-03-23T04:26:22;12.25;;;5.88;;
10667;SDS011;5382;42.136;24.796;2024-03-23T04:28:48;8.23;;;5.70;;
10667;SDS011;5382;42.136;24.796;2024-03-23T04:31:14;10.77;;;6.35;;
10667;SDS011;5382;42.136;24.796;2024-03-23T04:33:40;8.35;;;6.43;;
10667;SDS011;5382;42.136;24.796;2024-03-23T04:36:07;12.65;;;6.55;;
10667;SDS011;5382;42.136;24.796;2024-03-23T04:38:35;11.02;;;7.00;;
10667;SDS011;5382;42.136;24.796;2024-03-23T04:41:03;13.00;;;6.85;;
10667;SDS011;5382;42.136;24.796;2024-03-23T04:43:30;9.95;;;6.05;;
10667;SDS011;5382;42.136;24.796;2024-03-23T04:45:57;10.93;;;6.43;;
10667;SDS011;5382;42.136;24.796;2024-03-23T04:48:24;12.82;;;6.40;;
10667;SDS011;5382;42.136;24.796;2024-03-23T04:50:54;11.05;;;6.68;;
10667;SDS011;5382;42.136;24.796;2024-03-23T04:53:22;11.38;;;6.47;;
10667;SDS011;5382;42.136;24.796;2024-03-23T04:55:53;13.27;;;6.80;;
10667;SDS011;5382;42.136;24.796;2024-03-23T04:58:20;11.60;;;7.03;;
10667;SDS011;5382;42.136;24.796;2024-03-23T05:00:48;18.48;;;7.68;;
10667;SDS011;5382;42.136;24.796;2024-03-23T05:03:18;10.98;;;6.75;;
10667;SDS011;5382;42.136;24.796;2024-03-23T05:05:46;11.30;;;6.57;;
10667;SDS011;5382;42.136;24.796;2024-03-23T05:08:13;8.88;;;6.13;;
10667;SDS011;5382;42.136;24.796;2024-03-23T05:10:41;14.18;;;6.57;;
10667;SDS011;5382;42.136;24.796;2024-03-23T05:13:07;10.18;;;6.13;;
10667;SDS011;5382;42.136;24.796;2024-03-23T05:15:36;12.40;;;7.78;;
10667;SDS011;5382;42.136;24.796;2024-03-23T05:18:03;9.52;;;6.20;;
10667;SDS011;5382;42.136;24.796;2024-03-23T05:20:31;9.98;;;6.55;;
10667;SDS011;5382;42.136;24.796;2024-03-23T05:22:57;12.35;;;6.85;;
10667;SDS011;5382;42.136;24.796;2024-03-23T05:25:24;13.48;;;6.57;;
10667;SDS011;5382;42.136;24.796;2024-03-23T05:27:50;11.77;;;7.15;;
10667;SDS011;5382;42.136;24.796;2024-03-23T05:30:17;9.05;;;5.80;;
10667;SDS011;5382;42.136;24.796;2024-03-23T05:32:45;13.00;;;6.90;;
10667;SDS011;5382;42.136;24.796;2024-03-23T05:35:12;8.80;;;6.28;;
10667;SDS011;5382;42.136;24.796;2024-03-23T05:37:37;11.57;;;6.55;;
10667;SDS011;5382;42.136;24.796;2024-03-23T05:40:05;13.85;;;6.90;;
10667;SDS011;5382;42.136;24.796;2024-03-23T05:42:33;10.55;;;7.15;;
10667;SDS011;5382;42.136;24.796;2024-03-23T05:45:00;16.17;;;8.90;;
10667;SDS011;5382;42.136;24.796;2024-03-23T05:47:26;12.63;;;7.00;;
10667;SDS011;5382;42.136;24.796;2024-03-23T05:49:55;18.90;;;7.18;;
10667;SDS011;5382;42.136;24.796;2024-03-23T05:52:21;9.65;;;6.45;;
10667;SDS011;5382;42.136;24.796;2024-03-23T05:54:50;14.02;;;10.85;;
10667;SDS011;5382;42.136;24.796;2024-03-23T05:57:16;15.88;;;10.95;;
10667;SDS011;5382;42.136;24.796;2024-03-23T05:59:44;21.88;;;10.98;;
10667;SDS011;5382;42.136;24.796;2024-03-23T06:02:10;10.02;;;7.50;;
10667;SDS011;5382;42.136;24.796;2024-03-23T06:04:37;11.10;;;6.60;;
10667;SDS011;5382;42.136;24.796;2024-03-23T06:07:04;17.00;;;6.20;;
10667;SDS011;5382;42.136;24.796;2024-03-23T06:09:31;10.27;;;6.88;;
10667;SDS011;5382;42.136;24.796;2024-03-23T06:11:57;12.50;;;6.82;;
10667;SDS011;5382;42.136;24.796;2024-03-23T06:14:25;10.98;;;7.30;;
10667;SDS011;5382;42.136;24.796;2024-03-23T06:16:51;10.80;;;6.55;;
10667;SDS011;5382;42.136;24.796;2024-03-23T06:19:17;9.25;;;6.80;;
10667;SDS011;5382;42.136;24.796;2024-03-23T06:21:44;11.45;;;7.10;;
10667;SDS011;5382;42.136;24.796;2024-03-23T06:24:12;9.65;;;7.40;;
10667;SDS011;5382;42.136;24.796;2024-03-23T06:26:38;20.63;;;6.47;;
10667;SDS011;5382;42.136;24.796;2024-03-23T06:29:05;14.57;;;6.97;;
10667;SDS011;5382;42.136;24.796;2024-03-23T06:31:31;10.77;;;6.68;;
10667;SDS011;5382;42.136;24.796;2024-03-23T06:33:58;16.75;;;7.68;;
10667;SDS011;5382;42.136;24.796;2024-03-23T06:36:24;12.88;;;7.18;;
10667;SDS011;5382;42.136;24.796;2024-03-23T06:38:51;14.40;;;7.13;;
10667;SDS011;5382;42.136;24.796;2024-03-23T06:41:19;17.20;;;7.72;;
10667;SDS011;5382;42.136;24.796;2024-03-23T06:43:46;17.02;;;7.95;;
10667;SDS011;5382;42.136;24.796;2024-03-23T06:46:12;11.40;;;7.75;;
10667;SDS011;5382;42.136;24.796;2024-03-23T06:48:39;10.45;;;7.35;;
10667;SDS011;5382;42.136;24.796;2024-03-23T06:51:05;11.75;;;7.40;;
10667;SDS011;5382;42.136;24.796;2024-03-23T06:53:34;10.45;;;7.13;;
10667;SDS011;5382;42.136;24.796;2024-03-23T06:56:00;15.10;;;8.35;;
10667;SDS011;5382;42.136;24.796;2024-03-23T06:58:28;17.55;;;7.25;;
10667;SDS011;5382;42.136;24.796;2024-03-23T07:00:54;11.70;;;7.10;;
10667;SDS011;5382;42.136;24.796;2024-03-23T07:03:21;10.73;;;6.85;;
10667;SDS011;5382;42.136;24.796;2024-03-23T07:05:47;13.70;;;7.18;;
10667;SDS011;5382;42.136;24.796;2024-03-23T07:08:14;9.50;;;7.28;;
10667;SDS011;5382;42.136;24.796;2024-03-23T07:10:46;15.57;;;8.20;;
10667;SDS011;5382;42.136;24.796;2024-03-23T07:13:13;10.77;;;7.43;;
10667;SDS011;5382;42.136;24.796;2024-03-23T07:15:40;12.48;;;6.88;;
10667;SDS011;5382;42.136;24.796;2024-03-23T07:18:07;12.55;;;6.78;;
10667;SDS011;5382;42.136;24.796;2024-03-23T07:20:33;16.02;;;9.32;;
10667;SDS011;5382;42.136;24.796;2024-03-23T07:23:00;13.15;;;8.73;;
10667;SDS011;5382;42.136;24.796;2024-03-23T07:25:26;12.98;;;9.35;;
10667;SDS011;5382;42.136;24.796;2024-03-23T07:27:54;11.10;;;8.20;;
10667;SDS011;5382;42.136;24.796;2024-03-23T07:30:20;14.52;;;7.55;;
10667;SDS011;5382;42.136;24.796;2024-03-23T07:32:49;9.73;;;5.85;;
10667;SDS011;5382;42.136;24.796;2024-03-23T07:35:15;9.95;;;6.32;;
10667;SDS011;5382;42.136;24.796;2024-03-23T07:37:42;15.90;;;8.20;;
10667;SDS011;5382;42.136;24.796;2024-03-23T07:40:08;13.30;;;6.30;;
10667;SDS011;5382;42.136;24.796;2024-03-23T07:42:37;12.02;;;6.53;;
10667;SDS011;5382;42.136;24.796;2024-03-23T07:45:03;14.77;;;6.65;;
10667;SDS011;5382;42.136;24.796;2024-03-23T07:47:30;13.35;;;8.32;;
10667;SDS011;5382;42.136;24.796;2024-03-23T07:49:58;13.68;;;7.15;;
10667;SDS011;5382;42.136;24.796;2024-03-23T07:52:27;17.05;;;6.90;;
10667;SDS011;5382;42.136;24.796;2024-03-23T07:54:54;8.57;;;6.30;;
10667;SDS011;5382;42.136;24.796;2024-03-23T07:57:21;8.23;;;5.97;;
10667;SDS011;5382;42.136;24.796;2024-03-23T07:59:46;9.13;;;6.15;;
10667;SDS011;5382;42.136;24.796;2024-03-23T08:02:13;11.43;;;6.60;;
10667;SDS011;5382;42.136;24.796;2024-03-23T08:04:39;9.52;;;5.85;;
10667;SDS011;5382;42.136;24.796;2024-03-23T08:07:08;15.23;;;7.50;;
10667;SDS011;5382;42.136;24.796;2024-03-23T08:09:34;9.90;;;6.53;;
10667;SDS011;5382;42.136;24.796;2024-03-23T08:12:00;10.82;;;5.63;;
10667;SDS011;5382;42.136;24.796;2024-03-23T08:14:27;9.50;;;6.07;;
10667;SDS011;5382;42.136;24.796;2024-03-23T08:16:54;10.00;;;6.45;;
10667;SDS011;5382;42.136;24.796;2024-03-23T08:19:20;11.60;;;6.22;;
10667;SDS011;5382;42.136;24.796;2024-03-23T08:21:47;9.65;;;6.65;;
10667;SDS011;5382;42.136;24.796;2024-03-23T08:24:15;10.32;;;7.32;;
10667;SDS011;5382;42.136;24.796;2024-03-23T08:26:42;15.02;;;5.85;;
10667;SDS011;5382;42.136;24.796;2024-03-23T08:29:08;7.45;;;6.10;;
10667;SDS011;5382;42.136;24.796;2024-03-23T08:31:35;10.05;;;6.88;;
10667;SDS011;5382;42.136;24.796;2024-03-23T08:34:01;11.63;;;6.90;;
10667;SDS011;5382;42.136;24.796;2024-03-23T08:36:28;10.68;;;7.65;;
10667;SDS011;5382;42.136;24.796;2024-03-23T08:38:55;12.07;;;7.32;;
10667;SDS011;5382;42.136;24.796;2024-03-23T08:41:24;9.38;;;6.10;;
10667;SDS011;5382;42.136;24.796;2024-03-23T08:43:51;9.18;;;6.53;;
10667;SDS011;5382;42.136;24.796;2024-03-23T08:46:18;17.05;;;5.90;;
10667;SDS011;5382;42.136;24.796;2024-03-23T08:48:44;8.93;;;5.90;;
10667;SDS011;5382;42.136;24.796;2024-03-23T08:51:14;5.72;;;4.65;;
10667;SDS011;5382;42.136;24.796;2024-03-23T08:53:41;9.30;;;5.75;;
10667;SDS011;5382;42.136;24.796;2024-03-23T08:56:10;7.07;;;5.75;;
10667;SDS011;5382;42.136;24.796;2024-03-23T08:58:38;9.50;;;6.03;;
10667;SDS011;5382;42.136;24.796;2024-03-23T09:01:06;12.13;;;6.30;;
10667;SDS011;5382;42.136;24.796;2024-03-23T09:03:33;7.72;;;5.68;;
10667;SDS011;5382;42.136;24.796;2024-03-23T09:06:01;7.05;;;5.18;;
10667;SDS011;5382;42.136;24.796;2024-03-23T09:08:28;8.82;;;5.68;;
10667;SDS011;5382;42.136;24.796;2024-03-23T09:10:55;8.02;;;5.55;;
10667;SDS011;5382;42.136;24.796;2024-03-23T09:13:21;7.20;;;5.70;;
10667;SDS011;5382;42.136;24.796;2024-03-23T09:15:50;9.85;;;5.32;;
10667;SDS011;5382;42.136;24.796;2024-03-23T09:18:16;7.57;;;5.13;;
10667;SDS011;5382;42.136;24.796;2024-03-23T09:20:43;7.88;;;5.40;;
10667;SDS011;5382;42.136;24.796;2024-03-23T09:23:09;6.65;;;5.32;;
10667;SDS011;5382;42.136;24.796;2024-03-23T09:25:37;6.80;;;5.78;;
10667;SDS011;5382;42.136;24.796;2024-03-23T09:28:03;6.47;;;4.95;;
10667;SDS011;5382;42.136;24.796;2024-03-23T09:30:31;8.57;;;4.90;;
10667;SDS011;5382;42.136;24.796;2024-03-23T09:32:59;5.38;;;4.45;;
10667;SDS011;5382;42.136;24.796;2024-03-23T09:35:27;7.93;;;5.22;;
10667;SDS011;5382;42.136;24.796;2024-03-23T09:37:53;5.75;;;4.57;;
10667;SDS011;5382;42.136;24.796;2024-03-23T09:40:20;5.60;;;4.13;;
10667;SDS011;5382;42.136;24.796;2024-03-23T09:42:49;5.93;;;4.70;;
10667;SDS011;5382;42.136;24.796;2024-03-23T09:45:17;4.57;;;4.18;;
10667;SDS011;5382;42.136;24.796;2024-03-23T09:47:46;5.47;;;4.40;;
10667;SDS011;5382;42.136;24.796;2024-03-23T09:50:15;6.63;;;4.60;;
10667;SDS011;5382;42.136;24.796;2024-03-23T09:52:42;11.15;;;4.97;;
10667;SDS011;5382;42.136;24.796;2024-03-23T09:55:09;5.55;;;4.85;;
10667;SDS011;5382;42.136;24.796;2024-03-23T09:57:35;6.95;;;4.90;;
10667;SDS011;5382;42.136;24.796;2024-03-23T10:00:02;6.10;;;4.50;;
10667;SDS011;5382;42.136;24.796;2024-03-23T10:02:28;7.50;;;5.18;;
10667;SDS011;5382;42.136;24.796;2024-03-23T10:04:56;9.23;;;5.00;;
10667;SDS011;5382;42.136;24.796;2024-03-23T10:07:25;7.10;;;4.43;;
10667;SDS011;5382;42.136;24.796;2024-03-23T10:09:53;5.57;;;4.50;;
10667;SDS011;5382;42.136;24.796;2024-03-23T10:12:19;5.63;;;4.85;;
10667;SDS011;5382;42.136;24.796;2024-03-23T10:14:47;6.13;;;4.80;;
10667;SDS011;5382;42.136;24.796;2024-03-23T10:17:13;5.65;;;4.30;;
10667;SDS011;5382;42.136;24.796;2024-03-23T10:19:42;7.28;;;4.45;;
10667;SDS011;5382;42.136;24.796;2024-03-23T10:22:09;6.50;;;4.30;;
10667;SDS011;5382;42.136;24.796;2024-03-23T10:24:38;5.22;;;4.70;;
10667;SDS011;5382;42.136;24.796;2024-03-23T10:27:04;4.80;;;4.28;;
10667;SDS011;5382;42.136;24.796;2024-03-23T10:29:31;5.82;;;4.47;;
10667;SDS011;5382;42.136;24.796;2024-03-23T10:32:10;7.68;;;4.55;;
10667;SDS011;5382;42.136;24.796;2024-03-23T10:34:38;5.60;;;4.28;;
10667;SDS011;5382;42.136;24.796;2024-03-23T10:37:04;9.00;;;4.07;;
10667;SDS011;5382;42.136;24.796;2024-03-23T10:39:32;5.22;;;3.92;;
10667;SDS011;5382;42.136;24.796;2024-03-23T10:42:02;5.32;;;4.53;;
10667;SDS011;5382;42.136;24.796;2024-03-23T10:44:30;5.53;;;4.50;;
10667;SDS011;5382;42.136;24.796;2024-03-23T10:46:57;4.93;;;4.30;;
10667;SDS011;5382;42.136;24.796;2024-03-23T10:49:28;5.13;;;4.63;;
10667;SDS011;5382;42.136;24.796;2024-03-23T10:51:55;6.70;;;4.07;;
10667;SDS011;5382;42.136;24.796;2024-03-23T10:54:25;6.07;;;4.25;;
10667;SDS011;5382;42.136;24.796;2024-03-23T10:56:52;5.95;;;4.22;;
10667;SDS011;5382;42.136;24.796;2024-03-23T10:59:24;4.93;;;4.43;;
10667;SDS011;5382;42.136;24.796;2024-03-23T11:01:54;4.53;;;3.78;;
10667;SDS011;5382;42.136;24.796;2024-03-23T11:04:34;5.43;;;3.92;;
10667;SDS011;5382;42.136;24.796;2024-03-23T11:07:01;6.00;;;4.03;;
10667;SDS011;5382;42.136;24.796;2024-03-23T11:09:41;5.10;;;3.67;;
10667;SDS011;5382;42.136;24.796;2024-03-23T11:12:25;4.93;;;3.90;;
10667;SDS011;5382;42.136;24.796;2024-03-23T11:14:55;6.20;;;3.25;;
10667;SDS011;5382;42.136;24.796;2024-03-23T11:17:24;4.78;;;3.90;;
10667;SDS011;5382;42.136;24.796;2024-03-23T11:19:54;5.03;;;3.50;;
10667;SDS011;5382;42.136;24.796;2024-03-23T11:25:18;4.65;;;3.58;;
10667;SDS011;5382;42.136;24.796;2024-03-23T11:27:46;3.80;;;3.25;;
10667;SDS011;5382;42.136;24.796;2024-03-23T11:30:15;4.57;;;3.38;;
10667;SDS011;5382;42.136;24.796;2024-03-23T11:32:42;4.40;;;3.85;;
10667;SDS011;5382;42.136;24.796;2024-03-23T11:35:10;3.95;;;3.63;;
10667;SDS011;5382;42.136;24.796;2024-03-23T11:38:00;4.20;;;3.80;;
10667;SDS011;5382;42.136;24.796;2024-03-23T11:40:34;4.13;;;3.65;;
10667;SDS011;5382;42.136;24.796;2024-03-23T11:43:02;10.63;;;4.28;;
10667;SDS011;5382;42.136;24.796;2024-03-23T11:45:34;5.93;;;3.75;;
10667;SDS011;5382;42.136;24.796;2024-03-23T11:48:05;4.18;;;3.78;;
10667;SDS011;5382;42.136;24.796;2024-03-23T11:50:33;4.72;;;3.90;;
10667;SDS011;5382;42.136;24.796;2024-03-23T11:53:09;5.63;;;3.40;;
10667;SDS011;5382;42.136;24.796;2024-03-23T11:55:39;5.82;;;3.78;;
10667;SDS011;5382;42.136;24.796;2024-03-23T11:58:06;4.45;;;3.72;;
10667;SDS011;5382;42.136;24.796;2024-03-23T12:00:34;4.65;;;3.70;;
10667;SDS011;5382;42.136;24.796;2024-03-23T12:03:01;3.80;;;3.33;;
10667;SDS011;5382;42.136;24.796;2024-03-23T12:05:28;4.72;;;3.53;;
10667;SDS011;5382;42.136;24.796;2024-03-23T12:07:54;3.90;;;3.50;;
10667;SDS011;5382;42.136;24.796;2024-03-23T12:10:21;4.95;;;3.88;;
10667;SDS011;5382;42.136;24.796;2024-03-23T12:12:58;4.03;;;3.33;;
10667;SDS011;5382;42.136;24.796;2024-03-23T12:15:26;4.80;;;3.40;;
10667;SDS011;5382;42.136;24.796;2024-03-23T12:18:07;7.03;;;3.80;;
10667;SDS011;5382;42.136;24.796;2024-03-23T12:20:34;3.80;;;3.40;;
10667;SDS011;5382;42.136;24.796;2024-03-23T12:23:06;6.63;;;3.75;;
10667;SDS011;5382;42.136;24.796;2024-03-23T12:25:34;3.88;;;3.53;;
10667;SDS011;5382;42.136;24.796;2024-03-23T12:28:01;3.13;;;2.85;;
10667;SDS011;5382;42.136;24.796;2024-03-23T12:30:28;4.30;;;3.55;;
10667;SDS011;5382;42.136;24.796;2024-03-23T12:32:54;3.35;;;3.05;;
10667;SDS011;5382;42.136;24.796;2024-03-23T12:35:23;3.55;;;3.15;;
10667;SDS011;5382;42.136;24.796;2024-03-23T12:37:49;3.58;;;3.10;;
10667;SDS011;5382;42.136;24.796;2024-03-23T12:40:16;3.22;;;2.83;;
10667;SDS011;5382;42.136;24.796;2024-03-23T12:42:42;4.15;;;3.20;;
10667;SDS011;5382;42.136;24.796;2024-03-23T12:45:09;4.20;;;2.88;;
10667;SDS011;5382;42.136;24.796;2024-03-23T12:47:34;4.07;;;2.80;;
10667;SDS011;5382;42.136;24.796;2024-03-23T12:50:01;3.45;;;3.15;;
10667;SDS011;5382;42.136;24.796;2024-03-23T12:52:29;3.50;;;3.20;;
10667;SDS011;5382;42.136;24.796;2024-03-23T12:54:56;3.70;;;3.35;;
10667;SDS011;5382;42.136;24.796;2024-03-23T12:57:23;4.03;;;3.30;;
10667;SDS011;5382;42.136;24.796;2024-03-23T12:59:50;3.45;;;3.15;;
10667;SDS011;5382;42.136;24.796;2024-03-23T13:02:18;3.83;;;3.50;;
10667;SDS011;5382;42.136;24.796;2024-03-23T13:04:46;8.10;;;5.32;;
10667;SDS011;5382;42.136;24.796;2024-03-23T13:07:12;6.18;;;3.60;;
10667;SDS011;5382;42.136;24.796;2024-03-23T13:09:41;5.32;;;3.65;;
10667;SDS011;5382;42.136;24.796;2024-03-23T13:12:07;5.90;;;5.10;;
10667;SDS011;5382;42.136;24.796;2024-03-23T13:14:35;7.15;;;5.72;;
10667;SDS011;5382;42.136;24.796;2024-03-23T13:17:01;7.50;;;5.88;;
10667;SDS011;5382;42.136;24.796;2024-03-23T13:19:29;9.18;;;6.63;;
10667;SDS011;5382;42.136;24.796;2024-03-23T13:21:56;10.98;;;6.80;;
10667;SDS011;5382;42.136;24.796;2024-03-23T13:24:24;7.50;;;6.45;;
10667;SDS011;5382;42.136;24.796;2024-03-23T13:26:51;8.85;;;7.47;;
10667;SDS011;5382;42.136;24.796;2024-03-23T13:29:19;8.52;;;7.70;;
10667;SDS011;5382;42.136;24.796;2024-03-23T13:31:45;10.38;;;9.35;;
10667;SDS011;5382;42.136;24.796;2024-03-23T13:34:13;11.70;;;9.98;;
10667;SDS011;5382;42.136;24.796;2024-03-23T13:36:40;11.38;;;7.90;;
10667;SDS011;5382;42.136;24.796;2024-03-23T13:39:08;9.73;;;7.13;;
10667;SDS011;5382;42.136;24.796;2024-03-23T13:41:36;6.18;;;5.57;;
10667;SDS011;5382;42.136;24.796;2024-03-23T13:44:06;5.97;;;4.97;;
10667;SDS011;5382;42.136;24.796;2024-03-23T13:46:32;6.38;;;5.03;;
10667;SDS011;5382;42.136;24.796;2024-03-23T13:48:59;4.55;;;4.15;;
10667;SDS011;5382;42.136;24.796;2024-03-23T13:51:25;4.38;;;3.50;;
10667;SDS011;5382;42.136;24.796;2024-03-23T13:53:54;7.57;;;3.20;;
10667;SDS011;5382;42.136;24.796;2024-03-23T13:56:21;3.08;;;2.78;;
10667;SDS011;5382;42.136;24.796;2024-03-23T13:58:49;4.15;;;2.78;;
10667;SDS011;5382;42.136;24.796;2024-03-23T14:01:16;4.72;;;3.22;;
10667;SDS011;5382;42.136;24.796;2024-03-23T14:03:44;4.20;;;3.20;;
10667;SDS011;5382;42.136;24.796;2024-03-23T14:06:10;4.25;;;3.15;;
10667;SDS011;5382;42.136;24.796;2024-03-23T14:08:37;3.65;;;3.20;;
10667;SDS011;5382;42.136;24.796;2024-03-23T14:11:04;4.72;;;3.40;;
10667;SDS011;5382;42.136;24.796;2024-03-23T14:13:31;3.13;;;2.78;;
10667;SDS011;5382;42.136;24.796;2024-03-23T14:15:58;4.78;;;3.13;;
10667;SDS011;5382;42.136;24.796;2024-03-23T14:18:26;3.40;;;2.67;;
10667;SDS011;5382;42.136;24.796;2024-03-23T14:20:56;5.63;;;3.08;;
10667;SDS011;5382;42.136;24.796;2024-03-23T14:23:24;6.00;;;3.50;;
10667;SDS011;5382;42.136;24.796;2024-03-23T14:25:52;5.40;;;3.53;;
10667;SDS011;5382;42.136;24.796;2024-03-23T14:28:20;3.47;;;3.03;;
10667;SDS011;5382;42.136;24.796;2024-03-23T14:30:47;6.93;;;3.47;;
10667;SDS011;5382;42.136;24.796;2024-03-23T14:33:14;3.15;;;2.85;;
10667;SDS011;5382;42.136;24.796;2024-03-23T14:35:42;3.90;;;2.53;;
10667;SDS011;5382;42.136;24.796;2024-03-23T14:38:09;4.07;;;2.40;;
10667;SDS011;5382;42.136;24.796;2024-03-23T14:40:35;3.42;;;2.10;;
10667;SDS011;5382;42.136;24.796;2024-03-23T14:43:02;2.25;;;1.92;;
10667;SDS011;5382;42.136;24.796;2024-03-23T14:45:29;3.75;;;1.77;;
10667;SDS011;5382;42.136;24.796;2024-03-23T14:47:55;2.83;;;2.20;;
10667;SDS011;5382;42.136;24.796;2024-03-23T14:50:23;2.08;;;1.80;;
10667;SDS011;5382;42.136;24.796;2024-03-23T14:52:51;10.57;;;2.63;;
10667;SDS011;5382;42.136;24.796;2024-03-23T14:55:18;3.22;;;2.03;;
10667;SDS011;5382;42.136;24.796;2024-03-23T14:57:44;4.55;;;2.15;;
10667;SDS011;5382;42.136;24.796;2024-03-23T15:00:11;3.35;;;2.13;;
10667;SDS011;5382;42.136;24.796;2024-03-23T15:02:38;2.92;;;2.58;;
10667;SDS011;5382;42.136;24.796;2024-03-23T15:05:05;2.50;;;2.30;;
10667;SDS011;5382;42.136;24.796;2024-03-23T15:07:35;3.65;;;2.25;;
10667;SDS011;5382;42.136;24.796;2024-03-23T15:10:04;3.67;;;2.30;;
10667;SDS011;5382;42.136;24.796;2024-03-23T15:12:31;3.22;;;2.30;;
10667;SDS011;5382;42.136;24.796;2024-03-23T15:14:59;3.28;;;2.38;;
10667;SDS011;5382;42.136;24.796;2024-03-23T15:17:25;9.93;;;2.90;;
10667;SDS011;5382;42.136;24.796;2024-03-23T15:19:52;2.92;;;1.92;;
10667;SDS011;5382;42.136;24.796;2024-03-23T15:22:19;8.85;;;2.25;;
10667;SDS011;5382;42.136;24.796;2024-03-23T15:24:46;2.35;;;2.00;;
10667;SDS011;5382;42.136;24.796;2024-03-23T15:27:14;3.58;;;2.05;;
10667;SDS011;5382;42.136;24.796;2024-03-23T15:29:40;2.30;;;1.75;;
10667;SDS011;5382;42.136;24.796;2024-03-23T15:32:11;4.03;;;2.10;;
10667;SDS011;5382;42.136;24.796;2024-03-23T15:34:39;5.20;;;1.80;;
10667;SDS011;5382;42.136;24.796;2024-03-23T15:37:05;2.78;;;1.80;;
10667;SDS011;5382;42.136;24.796;2024-03-23T15:39:32;3.03;;;2.13;;
10667;SDS011;5382;42.136;24.796;2024-03-23T15:41:58;3.25;;;2.00;;